KNEW/NEW METAR and TAF weather

Enter ICAO airport designator
Station Type Date Time Source
KNEW METAR 2019/10/23 01:53 UTC NOAA

KNEW 230153Z AUTO 01013KT 10SM CLR 21/06 A3016 RMK AO2 SLP205 T02110061


Station Type Date Time Source
KNEW Decoded METAR 2019/10/23 01:53 UTC NOAA

NEW ORLEANS LAKEFRONT AIRPORT , LA, United States (KNEW) 30-03N 90-02W 3M
Oct 22, 2019 - 09:53 PM EDT / 2019.10.23 0153 UTC
Wind: from the N (010 degrees) at 15 MPH (13 KT):0
Visibility: 10 mile(s):0
Sky conditions: clear
Temperature: 70.0 F (21.1 C)
Dew Point: 43.0 F (6.1 C)
Relative Humidity: 37%
Pressure (altimeter): 30.16 in. Hg (1021 hPa)
ob: KNEW 230153Z AUTO 01013KT 10SM CLR 21/06 A3016 RMK AO2 SLP205 T02110061
cycle: 2

Station Type Date Time Source
KNEW TAF 2019/10/22 18:22 UTC NOAA

TAF KNEW 221720Z 2218/2318 36006KT P6SM SCT250
FM230500 03007KT P6SM SKC
FM231700 07008KT P6SM FEW250

Example: see airport list